Time;durP1;ratioP1;P1;durP2;ratioP2;P2;SDS_P1;SDS_P2;PMS_P1;PMS_P2;Temp;Humidity;BMP_temperature;BMP_pressure;BME280_temperature;BME280_humidity;BME280_pressure;Samples;Min_cycle;Max_cycle;Signal;HPM_P1;HPM_P2
2021/06/14 00:01:01;;;;;;;4.72;1.92;;;18.30;53.50;;;;;;6274814;22;20004;-82
2021/06/14 00:03:26;;;;;;;3.53;1.98;;;18.30;53.70;;;;;;6276738;22;20006;-82
2021/06/14 00:05:52;;;;;;;3.28;1.83;;;18.20;53.70;;;;;;6276762;22;20334;-82
2021/06/14 00:08:20;;;;;;;5.72;2.05;;;18.10;53.60;;;;;;6275095;22;20011;-83
2021/06/14 00:10:49;;;;;;;3.45;1.98;;;18.00;53.70;;;;;;6276524;22;20008;-82
2021/06/14 00:13:16;;;;;;;2.45;1.67;;;17.90;54.10;;;;;;6276092;22;20418;-83
2021/06/14 00:15:43;;;;;;;5.07;2.10;;;17.90;54.40;;;;;;6276896;22;20030;-82
2021/06/14 00:18:09;;;;;;;3.08;1.92;;;17.90;54.40;;;;;;6276889;22;20061;-83
2021/06/14 00:20:36;;;;;;;3.17;1.83;;;17.80;54.50;;;;;;6275074;22;20837;-82
2021/06/14 00:23:09;;;;;;;3.78;1.95;;;17.80;54.60;;;;;;6276455;22;20010;-82
2021/06/14 00:25:36;;;;;;;3.22;2.38;;;17.80;54.70;;;;;;6274896;22;20342;-82
2021/06/14 00:28:02;;;;;;;2.33;2.03;;;17.80;54.70;;;;;;6276510;22;20003;-83
2021/06/14 00:30:37;;;;;;;3.70;2.00;;;17.80;54.70;;;;;;6275833;22;20007;-82
2021/06/14 00:33:04;;;;;;;7.03;3.17;;;17.70;55.10;;;;;;6274643;22;20171;-82
2021/06/14 00:35:30;;;;;;;5.03;2.22;;;17.60;55.30;;;;;;6274592;22;20023;-82
2021/06/14 00:37:56;;;;;;;4.97;2.13;;;17.60;55.50;;;;;;6274902;22;20000;-82
2021/06/14 00:40:22;;;;;;;7.32;2.40;;;17.70;55.60;;;;;;6274568;22;20039;-82
2021/06/14 00:42:49;;;;;;;5.45;2.10;;;17.70;55.50;;;;;;6276229;22;20012;-82
2021/06/14 00:45:21;;;;;;;6.30;1.92;;;17.60;55.50;;;;;;6285095;22;20441;-82
2021/06/14 00:47:48;;;;;;;4.80;1.95;;;17.50;55.70;;;;;;6279833;22;20007;-82
2021/06/14 00:50:17;;;;;;;11.38;2.58;;;17.40;55.90;;;;;;6279496;22;20025;-82
2021/06/14 00:52:43;;;;;;;6.57;2.17;;;17.30;56.20;;;;;;6279404;22;20007;-82
2021/06/14 00:55:13;;;;;;;5.25;2.17;;;17.30;56.40;;;;;;6279302;22;20315;-82
2021/06/14 00:57:39;;;;;;;9.50;2.37;;;17.20;56.60;;;;;;6280074;22;20041;-82
2021/06/14 01:00:06;;;;;;;3.07;2.23;;;17.20;56.70;;;;;;6279390;22;19999;-82
2021/06/14 01:02:31;;;;;;;4.45;2.40;;;17.20;56.90;;;;;;6307154;22;20071;-82
2021/06/14 01:04:57;;;;;;;9.93;2.88;;;17.20;56.80;;;;;;6280181;22;20011;-82
2021/06/14 01:07:25;;;;;;;9.67;2.67;;;17.20;56.90;;;;;;6279947;22;20052;-82
2021/06/14 01:09:52;;;;;;;8.27;2.10;;;17.30;56.80;;;;;;6280090;22;20376;-82
2021/06/14 01:12:25;;;;;;;3.43;2.30;;;17.30;56.80;;;;;;6279314;22;19999;-82
2021/06/14 01:14:59;;;;;;;6.67;2.33;;;17.30;56.70;;;;;;6279657;22;20004;-82
2021/06/14 01:17:35;;;;;;;4.78;2.13;;;17.30;56.80;;;;;;6279896;22;20009;-82
2021/06/14 01:20:17;;;;;;;4.20;2.37;;;17.20;56.70;;;;;;6279733;22;20086;-82
2021/06/14 01:22:59;;;;;;;4.03;2.03;;;17.20;56.70;;;;;;6279307;22;20348;-82
2021/06/14 01:25:51;;;;;;;7.78;2.13;;;17.20;56.80;;;;;;6279596;22;20233;-82
2021/06/14 01:28:20;;;;;;;5.20;2.33;;;17.20;56.80;;;;;;6279877;22;20414;-82
2021/06/14 01:30:47;;;;;;;4.97;2.03;;;17.10;56.60;;;;;;6306439;22;20027;-82
2021/06/14 01:33:16;;;;;;;4.83;2.43;;;17.10;56.70;;;;;;6307025;22;19995;-82
2021/06/14 01:35:49;;;;;;;5.73;2.20;;;17.00;56.90;;;;;;6306861;22;20006;-82
2021/06/14 01:38:16;;;;;;;17.93;2.60;;;17.00;57.10;;;;;;6307309;22;20019;-82
2021/06/14 01:40:43;;;;;;;4.20;2.20;;;17.00;57.30;;;;;;6279806;22;20004;-83
2021/06/14 01:43:10;;;;;;;4.37;2.43;;;17.00;57.20;;;;;;6279205;22;20003;-83
2021/06/14 01:45:42;;;;;;;4.73;2.23;;;16.90;57.30;;;;;;6306599;22;20008;-82
2021/06/14 01:48:09;;;;;;;3.70;2.00;;;16.70;57.70;;;;;;6279493;22;20034;-82
2021/06/14 01:50:36;;;;;;;3.77;2.30;;;16.60;57.80;;;;;;6279737;22;20013;-82
2021/06/14 01:53:02;;;;;;;4.10;1.93;;;16.60;58.00;;;;;;6306870;22;20033;-82
2021/06/14 01:55:29;;;;;;;4.93;2.10;;;16.50;58.10;;;;;;6306917;22;20000;-82
2021/06/14 01:57:57;;;;;;;3.63;1.80;;;16.60;58.10;;;;;;6306704;22;20765;-82
2021/06/14 02:00:24;;;;;;;7.00;1.80;;;16.60;57.80;;;;;;6279166;22;20349;-82
2021/06/14 02:02:52;;;;;;;3.33;1.77;;;16.60;57.30;;;;;;6281324;22;20480;-82
2021/06/14 02:05:21;;;;;;;5.10;1.93;;;16.60;57.10;;;;;;6281273;22;20013;-82
2021/06/14 02:07:47;;;;;;;5.50;1.90;;;16.50;56.90;;;;;;6281548;22;20426;-82
2021/06/14 02:10:13;;;;;;;4.50;1.83;;;16.50;57.00;;;;;;6281586;22;20369;-82
2021/06/14 02:12:41;;;;;;;4.33;2.07;;;16.70;57.00;;;;;;6281380;22;20009;-82
2021/06/14 02:15:09;;;;;;;4.57;1.93;;;16.70;56.70;;;;;;6281161;22;20006;-82
2021/06/14 02:17:37;;;;;;;3.58;2.15;;;16.80;56.70;;;;;;6308875;22;20027;-82
2021/06/14 02:20:05;;;;;;;6.07;2.00;;;16.80;57.10;;;;;;6309095;22;20041;-82
2021/06/14 02:22:31;;;;;;;3.97;2.00;;;16.70;57.30;;;;;;6308493;22;20006;-82
2021/06/14 02:24:57;;;;;;;4.87;1.90;;;16.70;57.40;;;;;;6281969;22;20003;-82
2021/06/14 02:27:23;;;;;;;6.00;2.40;;;16.70;57.20;;;;;;6308895;22;19999;-82
2021/06/14 02:29:49;;;;;;;5.73;2.27;;;16.70;57.90;;;;;;6280435;22;20007;-82
2021/06/14 02:32:15;;;;;;;3.17;2.03;;;16.80;57.10;;;;;;6278640;22;20010;-82
2021/06/14 02:34:43;;;;;;;4.70;2.07;;;16.80;57.10;;;;;;6278978;22;19999;-82
2021/06/14 02:37:10;;;;;;;3.40;1.90;;;16.70;57.20;;;;;;6305716;22;20002;-82
2021/06/14 02:39:36;;;;;;;3.23;2.00;;;16.70;57.10;;;;;;6278388;22;20003;-82
2021/06/14 02:42:03;;;;;;;7.97;1.80;;;16.70;57.10;;;;;;6306980;22;20078;-82
2021/06/14 02:44:30;;;;;;;4.93;2.00;;;16.70;56.80;;;;;;6307034;22;20083;-82
2021/06/14 02:47:00;;;;;;;4.30;2.30;;;16.70;56.70;;;;;;6280442;22;20015;-82
2021/06/14 02:49:28;;;;;;;2.30;1.67;;;16.70;56.50;;;;;;6279710;22;20017;-83
2021/06/14 02:51:57;;;;;;;2.57;1.87;;;16.60;56.40;;;;;;6280199;22;20510;-82
2021/06/14 02:54:35;;;;;;;3.80;2.43;;;16.60;56.50;;;;;;6280027;22;20003;-82
2021/06/14 02:57:06;;;;;;;3.70;2.10;;;16.50;56.90;;;;;;6307873;22;19999;-82
2021/06/14 02:59:34;;;;;;;5.43;2.40;;;16.40;57.20;;;;;;6307869;22;20017;-85
2021/06/14 03:02:02;;;;;;;7.07;2.10;;;16.30;57.40;;;;;;6280164;22;20430;-85
2021/06/14 03:04:27;;;;;;;3.07;2.27;;;16.20;57.80;;;;;;6307670;22;19999;-85
2021/06/14 03:06:53;;;;;;;4.00;2.20;;;16.10;58.00;;;;;;6280534;22;20007;-85
2021/06/14 03:09:20;;;;;;;5.13;2.40;;;16.00;58.40;;;;;;6307250;22;20009;-85
2021/06/14 03:11:47;;;;;;;2.77;2.10;;;15.90;58.60;;;;;;6278867;22;20018;-85
2021/06/14 03:14:16;;;;;;;3.63;1.80;;;15.70;58.40;;;;;;6307261;22;20005;-85
2021/06/14 03:16:44;;;;;;;3.87;2.00;;;15.70;58.40;;;;;;6307164;22;20337;-85
2021/06/14 03:19:11;;;;;;;2.90;2.00;;;15.70;58.10;;;;;;6279901;22;20430;-85
2021/06/14 03:21:38;;;;;;;5.77;2.57;;;15.60;58.30;;;;;;6279718;22;20008;-85
2021/06/14 03:24:04;;;;;;;5.03;2.47;;;15.60;58.70;;;;;;6307274;22;19991;-85
2021/06/14 03:26:42;;;;;;;3.07;2.00;;;15.60;58.60;;;;;;6307692;22;19995;-84
2021/06/14 03:29:09;;;;;;;4.77;2.20;;;15.60;58.50;;;;;;6279665;22;20346;-85
2021/06/14 03:31:37;;;;;;;3.80;2.10;;;15.70;58.60;;;;;;6280023;22;20008;-85
2021/06/14 03:34:03;;;;;;;6.20;2.00;;;15.80;58.40;;;;;;6306963;22;20386;-85
2021/06/14 03:36:31;;;;;;;3.10;1.40;;;15.90;58.20;;;;;;6279702;22;20078;-85
2021/06/14 03:38:58;;;;;;;4.93;2.13;;;15.90;57.80;;;;;;6307853;22;20019;-84
2021/06/14 03:41:24;;;;;;;3.43;1.60;;;15.90;57.80;;;;;;6279644;22;20004;-84
2021/06/14 03:43:50;;;;;;;8.80;1.73;;;15.90;57.70;;;;;;6307161;22;20014;-84
2021/06/14 03:46:17;;;;;;;4.97;1.83;;;16.00;57.70;;;;;;6279409;22;20011;-84
2021/06/14 03:48:42;;;;;;;1.93;1.73;;;15.90;57.70;;;;;;6279555;22;20037;-84
2021/06/14 03:51:08;;;;;;;3.63;2.27;;;15.80;58.10;;;;;;6279544;22;20011;-84
2021/06/14 03:53:34;;;;;;;5.97;2.03;;;15.70;58.50;;;;;;6279543;22;20006;-84
2021/06/14 03:56:08;;;;;;;4.03;2.30;;;15.70;58.80;;;;;;6279389;22;20010;-84
2021/06/14 03:58:35;;;;;;;4.43;2.23;;;15.70;59.40;;;;;;6307054;22;20003;-84
2021/06/14 04:01:01;;;;;;;3.30;2.10;;;15.60;59.70;;;;;;6279283;22;19999;-85
2021/06/14 04:03:28;;;;;;;2.40;2.10;;;15.60;59.90;;;;;;6307019;22;20097;-85
2021/06/14 04:06:01;;;;;;;4.20;2.17;;;15.50;60.20;;;;;;6280329;22;20007;-85
2021/06/14 04:08:27;;;;;;;4.47;2.60;;;15.60;60.20;;;;;;6280681;22;20056;-85
2021/06/14 04:10:52;;;;;;;6.10;2.47;;;15.50;60.30;;;;;;6280670;22;20092;-85
2021/06/14 04:13:18;;;;;;;7.07;2.40;;;15.60;60.50;;;;;;6279719;22;20426;-85
2021/06/14 04:15:44;;;;;;;4.53;2.17;;;15.60;60.60;;;;;;6307831;22;19999;-85
2021/06/14 04:18:10;;;;;;;2.90;2.03;;;15.50;60.70;;;;;;6280651;22;19999;-85
2021/06/14 04:20:36;;;;;;;4.33;2.53;;;15.50;60.80;;;;;;6280560;22;20332;-85
2021/06/14 04:23:03;;;;;;;4.33;2.50;;;15.50;60.70;;;;;;6307633;22;20003;-85
2021/06/14 04:25:28;;;;;;;4.37;2.53;;;15.50;60.80;;;;;;6280224;22;20430;-85
2021/06/14 04:27:54;;;;;;;5.30;2.40;;;15.50;60.90;;;;;;6306987;22;20006;-85
2021/06/14 04:30:20;;;;;;;3.57;2.57;;;15.50;60.90;;;;;;6306862;22;20060;-85
2021/06/14 04:32:47;;;;;;;3.27;2.50;;;15.50;61.10;;;;;;6279028;22;20000;-84
2021/06/14 04:35:13;;;;;;;4.93;2.87;;;15.50;61.20;;;;;;6279167;22;20010;-85
2021/06/14 04:37:38;;;;;;;4.00;2.90;;;15.50;61.50;;;;;;6278653;22;20341;-85
2021/06/14 04:40:08;;;;;;;5.73;3.07;;;15.60;61.70;;;;;;6277831;22;20003;-85
2021/06/14 04:42:34;;;;;;;4.43;2.70;;;15.60;61.80;;;;;;6304831;22;20005;-85
2021/06/14 04:45:00;;;;;;;6.47;3.07;;;15.60;61.80;;;;;;6278069;22;20011;-85
2021/06/14 04:47:26;;;;;;;4.27;3.07;;;15.60;61.80;;;;;;6276627;22;20014;-85
2021/06/14 04:49:52;;;;;;;7.07;4.10;;;15.60;61.80;;;;;;6306054;22;20007;-84
2021/06/14 04:52:17;;;;;;;6.17;3.10;;;15.50;62.00;;;;;;6306190;22;19996;-84
2021/06/14 04:54:43;;;;;;;7.23;3.50;;;15.50;62.20;;;;;;6306150;22;20303;-85
2021/06/14 04:57:09;;;;;;;3.57;2.70;;;15.50;62.40;;;;;;6278790;22;20085;-84
2021/06/14 04:59:35;;;;;;;12.33;3.53;;;15.40;62.50;;;;;;6279009;22;20061;-84
2021/06/14 05:02:01;;;;;;;6.93;2.80;;;15.40;62.50;;;;;;6278744;22;20011;-84
2021/06/14 05:04:27;;;;;;;7.97;2.87;;;15.40;62.50;;;;;;6306010;22;20060;-84
2021/06/14 05:06:53;;;;;;;5.13;3.70;;;15.50;62.50;;;;;;6278975;22;20023;-84
2021/06/14 05:09:19;;;;;;;8.23;3.70;;;15.50;62.60;;;;;;6278492;22;20052;-84
2021/06/14 05:11:47;;;;;;;5.90;3.20;;;15.40;62.70;;;;;;6305578;22;19996;-84
2021/06/14 05:14:12;;;;;;;6.53;4.63;;;15.50;62.90;;;;;;6306067;22;20452;-84
2021/06/14 05:16:38;;;;;;;7.30;3.10;;;15.50;62.90;;;;;;6278212;22;19996;-84
2021/06/14 05:19:04;;;;;;;4.63;3.90;;;15.50;63.00;;;;;;6305542;22;20034;-84
2021/06/14 05:21:30;;;;;;;6.57;3.63;;;15.50;63.30;;;;;;6278724;22;20002;-84
2021/06/14 05:23:55;;;;;;;6.33;4.00;;;15.50;63.40;;;;;;6305968;22;20339;-84
2021/06/14 05:26:21;;;;;;;7.43;3.87;;;15.50;63.40;;;;;;6306359;22;20015;-85
2021/06/14 05:28:47;;;;;;;7.37;3.43;;;15.50;63.40;;;;;;6305879;22;20053;-84
2021/06/14 05:31:13;;;;;;;6.87;3.43;;;15.50;63.90;;;;;;6278805;22;20007;-84
2021/06/14 05:33:38;;;;;;;6.07;3.10;;;15.50;63.30;;;;;;6278747;22;20337;-84
2021/06/14 05:36:05;;;;;;;5.70;3.10;;;15.60;63.10;;;;;;6278680;22;20034;-84
2021/06/14 05:38:30;;;;;;;6.03;3.20;;;15.60;62.80;;;;;;6281084;22;20452;-84
2021/06/14 05:40:56;;;;;;;3.30;2.77;;;15.70;62.50;;;;;;6280603;22;20003;-84
2021/06/14 05:43:22;;;;;;;4.43;3.30;;;15.80;62.30;;;;;;6308540;22;20003;-84
2021/06/14 05:45:48;;;;;;;6.53;3.00;;;15.80;62.50;;;;;;6280101;22;20035;-84
2021/06/14 05:48:14;;;;;;;9.00;3.30;;;15.80;62.80;;;;;;6308277;22;20022;-84
2021/06/14 05:50:40;;;;;;;11.13;3.70;;;15.90;62.90;;;;;;6280523;22;20091;-84
2021/06/14 05:53:05;;;;;;;7.70;3.83;;;15.90;63.10;;;;;;6280049;22;20003;-84
2021/06/14 05:55:31;;;;;;;5.80;3.80;;;15.80;63.20;;;;;;6307442;22;19995;-84
2021/06/14 05:57:57;;;;;;;8.60;3.60;;;15.90;63.20;;;;;;6308166;22;19996;-84
2021/06/14 06:00:23;;;;;;;9.40;3.93;;;16.00;63.20;;;;;;6309045;22;20003;-84
2021/06/14 06:02:49;;;;;;;7.30;2.90;;;16.00;63.30;;;;;;6281528;22;20011;-84
2021/06/14 06:05:15;;;;;;;8.60;3.10;;;16.00;63.20;;;;;;6281086;22;20004;-84
2021/06/14 06:07:41;;;;;;;4.93;2.50;;;16.00;63.10;;;;;;6308833;22;20438;-84
2021/06/14 06:10:09;;;;;;;5.37;2.80;;;16.00;63.00;;;;;;6308844;22;20314;-84
2021/06/14 06:12:35;;;;;;;6.17;3.30;;;16.00;62.90;;;;;;6281498;22;20003;-84
2021/06/14 06:15:03;;;;;;;6.43;3.80;;;16.00;62.90;;;;;;6281436;22;20314;-84
2021/06/14 06:17:29;;;;;;;14.40;3.37;;;16.00;62.70;;;;;;6281219;22;20334;-84
2021/06/14 06:19:56;;;;;;;8.60;3.43;;;16.00;62.70;;;;;;6308174;22;20330;-84
2021/06/14 06:22:21;;;;;;;6.47;3.13;;;16.10;62.60;;;;;;6308320;22;20073;-84
2021/06/14 06:24:47;;;;;;;10.33;3.63;;;16.20;62.60;;;;;;6281386;22;20015;-84
2021/06/14 06:27:13;;;;;;;5.17;3.37;;;16.20;62.30;;;;;;6308866;22;19999;-84
2021/06/14 06:29:39;;;;;;;6.23;3.00;;;16.30;62.20;;;;;;6281199;22;20003;-84
2021/06/14 06:32:05;;;;;;;5.30;3.40;;;16.40;62.80;;;;;;6308772;22;20075;-84
2021/06/14 06:34:31;;;;;;;7.90;4.07;;;16.50;62.10;;;;;;6281544;22;19999;-84
2021/06/14 06:36:57;;;;;;;7.07;3.23;;;16.50;62.10;;;;;;6280369;22;20003;-84
2021/06/14 06:39:22;;;;;;;6.80;3.67;;;16.60;61.90;;;;;;6281132;22;20456;-84
2021/06/14 06:41:48;;;;;;;10.57;5.00;;;16.60;61.70;;;;;;6281378;22;20102;-84
2021/06/14 06:44:14;;;;;;;5.40;3.85;;;16.70;61.40;;;;;;6281320;22;20372;-84
2021/06/14 06:46:40;;;;;;;8.93;3.40;;;16.70;61.00;;;;;;6280873;22;20011;-84
2021/06/14 06:49:06;;;;;;;4.82;2.90;;;16.90;61.00;;;;;;6307982;22;19995;-84
2021/06/14 06:51:32;;;;;;;5.75;2.75;;;16.90;60.80;;;;;;6281065;22;20007;-84
2021/06/14 06:54:12;;;;;;;7.57;3.22;;;17.00;60.80;;;;;;6281536;22;20006;-84
2021/06/14 06:56:47;;;;;;;7.82;3.47;;;17.20;60.60;;;;;;6308626;22;19999;-83
2021/06/14 06:59:13;;;;;;;4.22;3.40;;;17.40;60.20;;;;;;6308967;22;19991;-84
2021/06/14 07:01:39;;;;;;;7.25;4.68;;;17.40;60.00;;;;;;6307901;22;20003;-84
2021/06/14 07:04:06;;;;;;;6.57;3.88;;;17.50;59.70;;;;;;6307417;22;20001;-84
2021/06/14 07:06:32;;;;;;;6.53;3.60;;;17.50;59.30;;;;;;6281065;22;20082;-84
2021/06/14 07:08:58;;;;;;;8.57;4.10;;;17.70;59.30;;;;;;6281181;22;20053;-84
2021/06/14 07:11:25;;;;;;;6.57;3.72;;;17.90;59.20;;;;;;6307836;22;19999;-84
2021/06/14 07:13:51;;;;;;;6.82;3.67;;;18.10;58.80;;;;;;6307657;22;19999;-85
2021/06/14 07:16:17;;;;;;;10.63;3.90;;;18.20;58.50;;;;;;6280288;22;20105;-84
2021/06/14 07:18:43;;;;;;;9.73;3.72;;;18.30;58.50;;;;;;6307732;22;20045;-85
2021/06/14 07:21:09;;;;;;;6.68;3.42;;;18.60;58.30;;;;;;6308423;22;20026;-84
2021/06/14 07:23:34;;;;;;;5.35;3.35;;;18.80;57.50;;;;;;6280700;22;20003;-84
2021/06/14 07:26:00;;;;;;;8.45;3.55;;;19.00;57.30;;;;;;6281267;22;20007;-84
2021/06/14 07:28:26;;;;;;;7.75;3.33;;;19.20;57.10;;;;;;6280580;22;20034;-85
2021/06/14 07:30:51;;;;;;;4.63;3.15;;;19.30;56.80;;;;;;6308717;22;20436;-84
2021/06/14 07:33:17;;;;;;;4.72;3.08;;;19.40;56.10;;;;;;6280179;22;20009;-85
2021/06/14 07:35:43;;;;;;;6.63;2.80;;;19.50;55.80;;;;;;6280875;22;20000;-85
2021/06/14 07:38:10;;;;;;;8.45;3.00;;;19.60;55.60;;;;;;6308094;22;19995;-85
2021/06/14 07:40:35;;;;;;;3.53;2.75;;;19.80;54.80;;;;;;6307873;22;20055;-85
2021/06/14 07:43:01;;;;;;;8.10;3.40;;;19.90;54.70;;;;;;6280724;22;20058;-84
2021/06/14 07:45:27;;;;;;;6.05;3.53;;;20.00;54.40;;;;;;6280443;22;20090;-84
2021/06/14 07:47:53;;;;;;;4.68;3.30;;;20.10;54.00;;;;;;6280422;22;20003;-84
2021/06/14 07:50:19;;;;;;;4.97;3.20;;;20.10;53.60;;;;;;6280292;22;20014;-84
2021/06/14 07:52:45;;;;;;;6.40;3.35;;;20.10;53.70;;;;;;6280543;22;20085;-84
2021/06/14 07:55:12;;;;;;;3.35;2.60;;;20.20;53.50;;;;;;6308321;22;20426;-84
2021/06/14 07:57:39;;;;;;;7.15;2.90;;;20.40;53.70;;;;;;6280817;22;20429;-84
2021/06/14 08:00:07;;;;;;;6.30;2.58;;;20.60;53.70;;;;;;6307616;22;20003;-84
2021/06/14 08:02:39;;;;;;;3.92;2.65;;;20.70;53.10;;;;;;6281411;22;20000;-85
2021/06/14 08:05:06;;;;;;;4.22;2.75;;;20.90;52.60;;;;;;6280717;22;20444;-84
2021/06/14 08:07:33;;;;;;;4.70;2.65;;;21.00;52.30;;;;;;6281071;22;20003;-84
2021/06/14 08:10:03;;;;;;;6.72;3.95;;;21.20;52.10;;;;;;6280606;22;20319;-84
2021/06/14 08:12:35;;;;;;;8.52;4.68;;;21.30;52.30;;;;;;6281062;22;20086;-85
2021/06/14 08:15:00;;;;;;;6.63;3.80;;;21.40;51.40;;;;;;6279431;22;20000;-85
2021/06/14 08:17:28;;;;;;;6.43;3.05;;;21.40;51.70;;;;;;6280436;22;20010;-85
2021/06/14 08:20:08;;;;;;;5.47;3.38;;;21.70;52.00;;;;;;6280204;22;20003;-85
2021/06/14 08:25:20;;;;;;;4.45;2.55;;;22.40;51.20;;;;;;6318523;22;20003;-85
2021/06/14 08:27:46;;;;;;;6.18;3.00;;;22.60;51.00;;;;;;6280207;22;20014;-85
2021/06/14 08:30:16;;;;;;;8.73;3.25;;;22.80;51.20;;;;;;6280125;22;20323;-85
2021/06/14 08:32:43;;;;;;;5.18;2.70;;;22.90;50.60;;;;;;6280548;22;20007;-85
2021/06/14 08:35:13;;;;;;;4.15;2.55;;;23.00;50.40;;;;;;6280383;22;20372;-85
2021/06/14 08:37:49;;;;;;;6.07;2.70;;;23.10;50.00;;;;;;6280313;22;20006;-85
2021/06/14 08:40:17;;;;;;;5.13;2.55;;;23.30;49.40;;;;;;6280306;22;20449;-85
2021/06/14 08:42:44;;;;;;;4.15;2.60;;;23.40;49.30;;;;;;6279787;22;20539;-85
2021/06/14 08:45:12;;;;;;;4.65;2.17;;;23.40;49.10;;;;;;6279279;22;20498;-84
2021/06/14 08:47:40;;;;;;;10.25;3.00;;;23.40;48.70;;;;;;6307012;22;20027;-85
2021/06/14 08:50:08;;;;;;;5.20;2.45;;;23.60;47.90;;;;;;6280079;22;20346;-85
2021/06/14 08:52:35;;;;;;;4.88;2.33;;;23.60;47.80;;;;;;6280639;22;20026;-85
2021/06/14 08:55:02;;;;;;;5.10;2.30;;;23.70;47.10;;;;;;6280312;22;20074;-85
2021/06/14 08:57:28;;;;;;;4.88;2.22;;;23.80;46.90;;;;;;6279255;22;19999;-85
2021/06/14 08:59:53;;;;;;;4.68;2.35;;;23.90;46.50;;;;;;6279278;22;20088;-85
2021/06/14 09:02:19;;;;;;;4.68;2.47;;;24.00;45.90;;;;;;6279151;22;20007;-85
2021/06/14 09:04:45;;;;;;;3.92;2.20;;;24.20;45.40;;;;;;6279561;22;20007;-85
2021/06/14 09:07:11;;;;;;;3.17;2.13;;;24.20;44.70;;;;;;6280220;22;20076;-85
2021/06/14 09:09:37;;;;;;;4.28;2.10;;;24.20;44.30;;;;;;6279841;22;20007;-85
2021/06/14 09:12:04;;;;;;;6.50;2.25;;;24.30;43.70;;;;;;6307485;22;19999;-85
2021/06/14 09:14:33;;;;;;;5.25;1.95;;;24.30;43.40;;;;;;6279357;22;19995;-85
2021/06/14 09:17:17;;;;;;;3.72;2.05;;;24.40;43.70;;;;;;6306065;22;19999;-86
2021/06/14 09:19:55;;;;;;;5.18;2.10;;;24.50;43.60;;;;;;6280231;22;20008;-85
2021/06/14 09:22:23;;;;;;;5.07;1.90;;;24.60;44.20;;;;;;6279714;22;20387;-88
2021/06/14 09:25:00;;;;;;;6.93;2.28;;;24.70;43.70;;;;;;6280119;22;20010;-88
2021/06/14 09:27:34;;;;;;;3.42;1.98;;;24.70;43.50;;;;;;6280470;22;20010;-87
2021/06/14 09:30:23;;;;;;;5.75;2.20;;;24.80;43.60;;;;;;6279698;22;20056;-86
2021/06/14 09:33:01;;;;;;;4.20;2.28;;;24.90;43.70;;;;;;6280224;22;20540;-86
2021/06/14 09:35:30;;;;;;;3.83;1.95;;;24.90;43.80;;;;;;6280413;22;20057;-87
2021/06/14 09:37:56;;;;;;;7.80;2.50;;;25.00;43.90;;;;;;6279559;22;20003;-87
2021/06/14 09:40:52;;;;;;;4.65;2.70;;;25.20;44.20;;;;;;6280201;22;20345;-87
2021/06/14 09:43:27;;;;;;;6.75;2.78;;;25.20;43.70;;;;;;6254902;22;20086;-86
2021/06/14 09:45:54;;;;;;;7.68;2.20;;;25.20;43.70;;;;;;6280098;22;20098;-87
2021/06/14 09:48:24;;;;;;;4.72;2.35;;;25.20;43.70;;;;;;6280094;22;20430;-87
2021/06/14 09:50:52;;;;;;;4.70;2.50;;;25.30;43.70;;;;;;6280022;22;20378;-87
2021/06/14 09:53:21;;;;;;;9.15;2.60;;;25.30;43.60;;;;;;6307258;22;19995;-87
2021/06/14 09:55:50;;;;;;;6.10;2.80;;;25.40;43.70;;;;;;6306812;22;20425;-87
2021/06/14 09:58:23;;;;;;;4.70;2.55;;;25.50;43.40;;;;;;6307588;22;20075;-86
2021/06/14 10:00:51;;;;;;;9.40;2.60;;;25.50;43.00;;;;;;6307549;22;20505;-87
2021/06/14 10:03:18;;;;;;;7.57;2.90;;;25.50;43.00;;;;;;6280014;22;20000;-86
2021/06/14 10:05:52;;;;;;;2.97;2.42;;;25.50;43.00;;;;;;6279967;22;20007;-87
2021/06/14 10:08:29;;;;;;;12.20;3.20;;;25.50;42.70;;;;;;6279709;22;20010;-86
2021/06/14 10:11:17;;;;;;;7.53;2.40;;;25.60;42.10;;;;;;6307490;22;20345;-88
2021/06/14 10:13:45;;;;;;;8.05;2.90;;;25.70;42.10;;;;;;6307340;22;20004;-87
2021/06/14 10:16:16;;;;;;;8.80;2.30;;;25.70;42.10;;;;;;6279887;22;19999;-87
2021/06/14 10:18:45;;;;;;;6.75;2.92;;;25.80;41.90;;;;;;6307034;22;20000;-87
2021/06/14 10:21:30;;;;;;;6.80;2.67;;;25.80;41.40;;;;;;6305392;22;20078;-88
2021/06/14 10:23:59;;;;;;;2.78;2.20;;;26.00;41.80;;;;;;6308859;22;20076;-87
2021/06/14 10:26:27;;;;;;;4.82;2.38;;;26.00;41.00;;;;;;6309114;22;20003;-88
2021/06/14 10:28:53;;;;;;;5.97;1.95;;;26.10;41.10;;;;;;6308983;22;20074;-87
2021/06/14 10:31:20;;;;;;;4.63;2.10;;;26.10;41.10;;;;;;6308320;22;20070;-87
2021/06/14 10:33:50;;;;;;;7.78;2.42;;;26.10;40.40;;;;;;6281141;22;20342;-87
2021/06/14 10:36:20;;;;;;;3.67;1.92;;;26.20;40.10;;;;;;6280838;22;20132;-87
2021/06/14 10:38:49;;;;;;;3.50;2.20;;;26.30;40.00;;;;;;6281831;22;19999;-88
2021/06/14 10:41:15;;;;;;;2.30;2.03;;;26.30;39.30;;;;;;6310865;22;19999;-88
2021/06/14 10:43:41;;;;;;;3.08;1.83;;;26.40;39.20;;;;;;6281693;22;20011;-87
2021/06/14 10:46:11;;;;;;;3.03;1.80;;;26.40;38.50;;;;;;6280967;22;20011;-87
2021/06/14 10:48:38;;;;;;;5.38;2.03;;;26.30;38.50;;;;;;6308911;22;20029;-88
2021/06/14 10:51:14;;;;;;;7.25;2.25;;;26.40;38.00;;;;;;6281280;22;20094;-87
2021/06/14 10:53:41;;;;;;;3.00;1.70;;;26.50;37.50;;;;;;6308676;22;20003;-87
2021/06/14 10:56:08;;;;;;;5.93;1.73;;;26.50;37.80;;;;;;6281114;22;20376;-87
2021/06/14 10:58:34;;;;;;;2.45;1.80;;;26.50;37.50;;;;;;6281295;22;20025;-87
2021/06/14 11:01:05;;;;;;;3.30;1.75;;;26.50;37.10;;;;;;6308620;22;20003;-87
2021/06/14 11:03:48;;;;;;;7.32;1.63;;;26.60;36.80;;;;;;6307464;22;20319;-86
2021/06/14 11:06:17;;;;;;;4.13;1.70;;;26.60;37.20;;;;;;6280870;22;20400;-87
2021/06/14 11:08:54;;;;;;;3.47;1.33;;;26.70;36.50;;;;;;6280884;22;20345;-86
2021/06/14 11:11:20;;;;;;;2.88;1.38;;;26.70;36.10;;;;;;6281207;22;20010;-87
2021/06/14 11:13:50;;;;;;;2.65;1.35;;;26.80;36.00;;;;;;6280945;22;20345;-87
2021/06/14 11:16:17;;;;;;;5.90;1.63;;;26.80;35.70;;;;;;6307699;22;20074;-87
2021/06/14 11:18:43;;;;;;;4.00;1.38;;;26.90;36.10;;;;;;6307530;22;20003;-87
2021/06/14 11:21:18;;;;;;;4.03;1.65;;;27.00;36.70;;;;;;6280554;22;20010;-87
2021/06/14 11:23:48;;;;;;;2.72;1.25;;;27.10;36.00;;;;;;6280569;22;20011;-87
2021/06/14 11:26:29;;;;;;;2.55;1.95;;;27.00;35.60;;;;;;6280421;22;20011;-86
2021/06/14 11:28:55;;;;;;;6.28;1.65;;;27.00;35.10;;;;;;6280174;22;20396;-87
2021/06/14 11:31:25;;;;;;;4.55;1.90;;;27.10;35.50;;;;;;6307347;22;20074;-86
2021/06/14 11:33:53;;;;;;;1.70;1.40;;;27.10;35.30;;;;;;6307010;22;20625;-87
2021/06/14 11:36:26;;;;;;;5.05;2.45;;;27.20;35.10;;;;;;6280324;22;20031;-87
2021/06/14 11:38:55;;;;;;;3.28;1.50;;;27.20;35.80;;;;;;6279909;22;20011;-87
2021/06/14 11:41:39;;;;;;;5.88;1.23;;;27.20;34.60;;;;;;6280218;22;20492;-87
2021/06/14 11:44:31;;;;;;;4.10;1.25;;;27.20;33.80;;;;;;6280554;22;20381;-87
2021/06/14 11:47:10;;;;;;;4.68;2.08;;;27.20;33.70;;;;;;6279647;22;20065;-87
2021/06/14 11:49:36;;;;;;;2.28;1.30;;;27.30;33.50;;;;;;6279856;22;20484;-88
2021/06/14 11:52:14;;;;;;;3.22;1.70;;;27.30;33.20;;;;;;6279941;22;20007;-87
2021/06/14 11:54:40;;;;;;;4.97;1.52;;;27.30;33.50;;;;;;6308991;22;20360;-88
2021/06/14 11:57:06;;;;;;;2.67;1.52;;;27.40;33.60;;;;;;6307830;22;20003;-87
2021/06/14 11:59:34;;;;;;;5.18;1.38;;;27.40;33.50;;;;;;6280015;22;20330;-86
2021/06/14 12:02:02;;;;;;;5.57;1.52;;;27.40;33.30;;;;;;6280187;22;20045;-87
2021/06/14 12:04:28;;;;;;;3.05;1.77;;;27.40;33.50;;;;;;6306271;22;20013;-87
2021/06/14 12:06:55;;;;;;;3.70;1.30;;;27.40;33.60;;;;;;6307257;22;20060;-87
2021/06/14 12:09:26;;;;;;;1.95;1.15;;;27.50;33.50;;;;;;6307274;22;20288;-87
2021/06/14 12:12:00;;;;;;;2.17;1.37;;;27.50;33.10;;;;;;6279856;22;20081;-87
2021/06/14 12:14:27;;;;;;;5.05;1.38;;;27.60;32.90;;;;;;6279369;22;20006;-87
2021/06/14 12:17:02;;;;;;;2.20;1.10;;;27.60;33.00;;;;;;6279444;22;20057;-87
2021/06/14 12:19:46;;;;;;;3.22;1.23;;;27.60;32.60;;;;;;6280114;22;20003;-87
2021/06/14 12:22:12;;;;;;;5.03;1.38;;;27.60;32.00;;;;;;6307497;22;20513;-88
2021/06/14 12:24:38;;;;;;;4.13;1.10;;;27.60;32.40;;;;;;6280563;22;20031;-88
2021/06/14 12:27:06;;;;;;;4.32;1.20;;;27.60;32.30;;;;;;6307788;22;20058;-87
2021/06/14 12:29:32;;;;;;;2.92;1.10;;;27.60;32.40;;;;;;6278880;22;20003;-87
2021/06/14 12:32:06;;;;;;;3.05;1.20;;;27.60;32.20;;;;;;6278405;22;20003;-87
2021/06/14 12:34:34;;;;;;;7.05;1.48;;;27.70;31.50;;;;;;6279258;22;20003;-87
2021/06/14 12:37:07;;;;;;;3.22;1.63;;;27.70;31.60;;;;;;6306791;22;20026;-87
2021/06/14 12:39:33;;;;;;;1.42;0.95;;;27.70;31.10;;;;;;6307489;22;20003;-87
2021/06/14 12:42:00;;;;;;;2.10;1.02;;;27.80;31.40;;;;;;6306838;22;19995;-87
2021/06/14 12:44:26;;;;;;;1.80;1.02;;;27.80;31.60;;;;;;6306859;22;20007;-86
2021/06/14 12:46:52;;;;;;;3.40;1.40;;;27.80;31.70;;;;;;6306805;22;20462;-87
2021/06/14 12:49:28;;;;;;;3.05;1.42;;;27.80;31.40;;;;;;6280266;22;20004;-86
2021/06/14 12:51:54;;;;;;;5.03;0.82;;;27.80;31.20;;;;;;6279984;22;20007;-87
2021/06/14 12:54:21;;;;;;;2.45;1.20;;;27.90;31.60;;;;;;6307484;22;19991;-86